Time;durP1;ratioP1;P1;durP2;ratioP2;P2;SDS_P1;SDS_P2;PMS_P1;PMS_P2;Temp;Humidity;BMP_temperature;BMP_pressure;BME280_temperature;BME280_humidity;BME280_pressure;Samples;Min_cycle;Max_cycle;Signal;HPM_P1;HPM_P2
2022/04/04 00:00:50;;;;;;;23.20;10.97;;;;;;;;;;5029899;28;20208;-84
2022/04/04 00:03:17;;;;;;;23.73;10.40;;;;;;;;;;5035189;28;20462;-87
2022/04/04 00:05:44;;;;;;;21.60;10.97;;;;;;;;;;5034969;28;20236;-85
2022/04/04 00:08:12;;;;;;;30.30;11.20;;;;;;;;;;5037038;28;20450;-85
2022/04/04 00:10:39;;;;;;;20.43;11.30;;;;;;;;;;5035307;28;20286;-84
2022/04/04 00:13:07;;;;;;;27.27;11.10;;;;;;;;;;5040878;28;20234;-85
2022/04/04 00:15:34;;;;;;;19.53;10.20;;;;;;;;;;5042890;28;20458;-85
2022/04/04 00:18:08;;;;;;;22.00;11.43;;;;;;;;;;5038531;28;20446;-85
2022/04/04 00:20:35;;;;;;;19.63;10.73;;;;;;;;;;5041863;28;20478;-85
2022/04/04 00:23:03;;;;;;;26.90;11.13;;;;;;;;;;5038769;28;20545;-85
2022/04/04 00:25:30;;;;;;;25.50;10.67;;;;;;;;;;5035958;28;20558;-84
2022/04/04 00:27:57;;;;;;;26.77;10.77;;;;;;;;;;5044490;28;20811;-84
2022/04/04 00:30:25;;;;;;;22.37;11.07;;;;;;;;;;5045115;28;20454;-83
2022/04/04 00:32:52;;;;;;;22.83;10.43;;;;;;;;;;5037868;28;20474;-82
2022/04/04 00:35:21;;;;;;;19.73;10.33;;;;;;;;;;5044126;28;20514;-83
2022/04/04 00:37:50;;;;;;;21.70;11.03;;;;;;;;;;5039495;28;21017;-84
2022/04/04 00:40:19;;;;;;;20.13;10.20;;;;;;;;;;5039934;28;20910;-84
2022/04/04 00:42:46;;;;;;;23.67;10.07;;;;;;;;;;5036538;28;20458;-84
2022/04/04 00:45:13;;;;;;;23.80;10.90;;;;;;;;;;5044157;28;20611;-84
2022/04/04 00:47:41;;;;;;;20.03;10.17;;;;;;;;;;5035872;28;20474;-83
2022/04/04 00:50:08;;;;;;;23.97;10.40;;;;;;;;;;5042425;28;20469;-84
2022/04/04 00:52:37;;;;;;;19.63;9.93;;;;;;;;;;5036227;28;20482;-86
2022/04/04 00:55:05;;;;;;;22.37;10.33;;;;;;;;;;5049320;28;20500;-85
2022/04/04 00:57:32;;;;;;;21.40;10.87;;;;;;;;;;5049347;28;20458;-84
2022/04/04 01:00:00;;;;;;;23.03;10.93;;;;;;;;;;5047253;28;20489;-83
2022/04/04 01:02:27;;;;;;;19.37;10.60;;;;;;;;;;5042440;28;20450;-84
2022/04/04 01:04:54;;;;;;;15.83;9.60;;;;;;;;;;5044315;28;20473;-84
2022/04/04 01:07:22;;;;;;;23.57;11.10;;;;;;;;;;5042123;28;20467;-84
2022/04/04 01:09:51;;;;;;;27.27;10.93;;;;;;;;;;5042058;28;20484;-85
2022/04/04 01:12:22;;;;;;;17.50;10.70;;;;;;;;;;5044299;28;20526;-83
2022/04/04 01:14:49;;;;;;;19.53;11.33;;;;;;;;;;5050234;28;20502;-82
2022/04/04 01:17:16;;;;;;;26.60;11.03;;;;;;;;;;5050057;28;20461;-86
2022/04/04 01:19:45;;;;;;;22.80;9.77;;;;;;;;;;5049170;28;21007;-83
2022/04/04 01:22:13;;;;;;;19.77;11.00;;;;;;;;;;5045574;28;20514;-85
2022/04/04 01:24:42;;;;;;;24.57;11.43;;;;;;;;;;5044149;28;20493;-86
2022/04/04 01:27:11;;;;;;;22.00;10.80;;;;;;;;;;5039264;28;20536;-85
2022/04/04 01:29:39;;;;;;;20.47;10.63;;;;;;;;;;5043348;28;20451;-86
2022/04/04 01:32:07;;;;;;;19.23;11.03;;;;;;;;;;5049353;28;20974;-84
2022/04/04 01:34:35;;;;;;;20.30;10.80;;;;;;;;;;5049533;28;20496;-82
2022/04/04 01:37:03;;;;;;;28.17;11.50;;;;;;;;;;5045040;28;20569;-83
2022/04/04 01:39:30;;;;;;;30.03;11.17;;;;;;;;;;5043449;28;20477;-84
2022/04/04 01:41:59;;;;;;;23.77;10.70;;;;;;;;;;5050463;28;20462;-86
2022/04/04 01:44:26;;;;;;;21.87;11.17;;;;;;;;;;5045105;28;20481;-85
2022/04/04 01:46:54;;;;;;;21.97;11.27;;;;;;;;;;5044472;28;20951;-86
2022/04/04 01:49:21;;;;;;;24.43;11.50;;;;;;;;;;5046247;28;20489;-84
2022/04/04 01:51:48;;;;;;;20.37;11.00;;;;;;;;;;5048017;28;20764;-86
2022/04/04 01:54:16;;;;;;;22.10;11.17;;;;;;;;;;5039857;28;20557;-86
2022/04/04 01:56:43;;;;;;;24.17;11.40;;;;;;;;;;5046590;28;20458;-85
2022/04/04 01:59:12;;;;;;;41.10;12.03;;;;;;;;;;5041504;28;20492;-86
2022/04/04 02:01:41;;;;;;;20.37;11.00;;;;;;;;;;5045801;28;20465;-85
2022/04/04 02:04:10;;;;;;;23.40;11.57;;;;;;;;;;5047226;28;20469;-85
2022/04/04 02:06:37;;;;;;;19.77;11.10;;;;;;;;;;5042654;28;20458;-83
2022/04/04 02:09:05;;;;;;;22.80;11.57;;;;;;;;;;5045394;28;20458;-86
2022/04/04 02:11:34;;;;;;;22.00;11.23;;;;;;;;;;5046648;28;20467;-84
2022/04/04 02:14:02;;;;;;;25.20;12.40;;;;;;;;;;5047899;28;20484;-83
2022/04/04 02:16:31;;;;;;;25.27;11.97;;;;;;;;;;5047754;28;20446;-82
2022/04/04 02:18:58;;;;;;;28.47;11.57;;;;;;;;;;5041716;28;20454;-83
2022/04/04 02:21:26;;;;;;;22.00;11.40;;;;;;;;;;5051670;28;20450;-86
2022/04/04 02:23:53;;;;;;;21.83;11.60;;;;;;;;;;5044743;28;20470;-87
2022/04/04 02:26:21;;;;;;;22.50;12.10;;;;;;;;;;5044610;28;20481;-85
2022/04/04 02:28:49;;;;;;;23.77;10.90;;;;;;;;;;5042476;28;21158;-83
2022/04/04 02:31:16;;;;;;;20.07;11.33;;;;;;;;;;5044242;28;20459;-86
2022/04/04 02:33:45;;;;;;;22.10;12.03;;;;;;;;;;5041164;28;20517;-86
2022/04/04 02:36:12;;;;;;;23.47;11.60;;;;;;;;;;5038372;28;20539;-83
2022/04/04 02:38:40;;;;;;;30.57;11.63;;;;;;;;;;5047113;28;20463;-86
2022/04/04 02:41:08;;;;;;;25.67;12.47;;;;;;;;;;5044948;28;20526;-86
2022/04/04 02:43:35;;;;;;;23.77;12.27;;;;;;;;;;5045354;28;20518;-86
2022/04/04 02:46:03;;;;;;;20.67;10.87;;;;;;;;;;5042523;28;20469;-84
2022/04/04 02:48:30;;;;;;;21.43;11.53;;;;;;;;;;5045082;28;20458;-85
2022/04/04 02:50:59;;;;;;;25.80;12.03;;;;;;;;;;5040895;28;20477;-85
2022/04/04 02:53:26;;;;;;;27.30;12.33;;;;;;;;;;5046156;28;20485;-85
2022/04/04 02:58:38;;;;;;;23.53;11.33;;;;;;;;;;5046830;28;20461;-86
2022/04/04 03:04:23;;;;;;;22.30;11.27;;;;;;;;;;4995712;28;20574;-83
2022/04/04 03:06:52;;;;;;;23.30;12.07;;;;;;;;;;5003933;28;20575;-85
2022/04/04 03:09:19;;;;;;;22.70;12.20;;;;;;;;;;5023084;28;20550;-85
2022/04/04 03:11:47;;;;;;;25.53;12.67;;;;;;;;;;5048247;28;20450;-85
2022/04/04 03:14:17;;;;;;;23.00;11.77;;;;;;;;;;5050276;28;20478;-85
2022/04/04 03:16:44;;;;;;;26.20;12.50;;;;;;;;;;5050207;28;20508;-86
2022/04/04 03:19:12;;;;;;;23.83;11.87;;;;;;;;;;5047844;28;20902;-86
2022/04/04 03:21:40;;;;;;;24.80;12.97;;;;;;;;;;5047414;28;20794;-85
2022/04/04 03:24:18;;;;;;;25.50;12.60;;;;;;;;;;5042919;28;20482;-85
2022/04/04 03:26:48;;;;;;;23.40;11.97;;;;;;;;;;5041211;28;20478;-85
2022/04/04 03:29:16;;;;;;;23.73;12.50;;;;;;;;;;5038961;28;20493;-84
2022/04/04 03:31:43;;;;;;;24.03;11.73;;;;;;;;;;5045476;28;20522;-84
2022/04/04 03:34:10;;;;;;;24.20;11.63;;;;;;;;;;5033888;28;20524;-86
2022/04/04 03:36:38;;;;;;;23.00;11.90;;;;;;;;;;5036278;28;20481;-87
2022/04/04 03:39:06;;;;;;;25.70;12.33;;;;;;;;;;5030094;28;20454;-85
2022/04/04 03:41:35;;;;;;;25.20;11.60;;;;;;;;;;5031024;28;20435;-87
2022/04/04 03:44:02;;;;;;;24.70;12.83;;;;;;;;;;5035575;28;21504;-87
2022/04/04 03:46:29;;;;;;;33.43;15.30;;;;;;;;;;5035325;28;20488;-85
2022/04/04 03:48:57;;;;;;;24.83;12.93;;;;;;;;;;5035927;28;20451;-87
2022/04/04 03:51:25;;;;;;;24.43;11.23;;;;;;;;;;5034802;28;20540;-86
2022/04/04 03:53:52;;;;;;;23.23;11.97;;;;;;;;;;5032890;28;20496;-86
2022/04/04 03:56:20;;;;;;;32.37;12.70;;;;;;;;;;5034384;28;20906;-86
2022/04/04 03:58:49;;;;;;;29.40;15.37;;;;;;;;;;5035954;28;20467;-85
2022/04/04 04:01:16;;;;;;;28.70;14.60;;;;;;;;;;5035236;28;21001;-85
2022/04/04 04:03:44;;;;;;;29.37;14.83;;;;;;;;;;5035844;28;20562;-86
2022/04/04 04:06:16;;;;;;;25.37;13.37;;;;;;;;;;5033143;28;20503;-84
2022/04/04 04:08:44;;;;;;;27.23;13.33;;;;;;;;;;5037607;28;20470;-83
2022/04/04 04:11:12;;;;;;;27.17;13.30;;;;;;;;;;5036171;28;20500;-86
2022/04/04 04:13:40;;;;;;;26.10;12.60;;;;;;;;;;5033226;28;20486;-86
2022/04/04 04:16:10;;;;;;;29.33;13.13;;;;;;;;;;5036104;28;20525;-86
2022/04/04 04:18:38;;;;;;;29.07;13.67;;;;;;;;;;5032934;28;20474;-87
2022/04/04 04:21:05;;;;;;;24.23;12.10;;;;;;;;;;5032788;28;20468;-89
2022/04/04 04:23:32;;;;;;;24.30;12.03;;;;;;;;;;5035118;28;20517;-85
2022/04/04 04:26:00;;;;;;;26.23;13.13;;;;;;;;;;5033925;28;20466;-86
2022/04/04 04:28:29;;;;;;;24.57;13.17;;;;;;;;;;5039742;28;20462;-85
2022/04/04 04:30:56;;;;;;;26.20;12.90;;;;;;;;;;5041400;28;20999;-85
2022/04/04 04:33:25;;;;;;;25.60;12.90;;;;;;;;;;5038803;28;20574;-86
2022/04/04 04:35:57;;;;;;;23.60;12.50;;;;;;;;;;5059135;22;20552;-83
2022/04/04 04:38:25;;;;;;;24.90;11.90;;;;;;;;;;5048689;28;21051;-84
2022/04/04 04:40:52;;;;;;;25.13;12.70;;;;;;;;;;5051144;28;20460;-84
2022/04/04 04:43:20;;;;;;;26.23;12.73;;;;;;;;;;5046559;28;20471;-84
2022/04/04 04:45:48;;;;;;;25.50;12.93;;;;;;;;;;5048177;28;20520;-84
2022/04/04 04:48:16;;;;;;;27.03;11.83;;;;;;;;;;5043117;28;20461;-84
2022/04/04 04:50:46;;;;;;;23.83;12.03;;;;;;;;;;5040632;28;20913;-83
2022/04/04 04:53:13;;;;;;;26.83;11.50;;;;;;;;;;5040571;28;20484;-84
2022/04/04 04:55:40;;;;;;;28.97;12.37;;;;;;;;;;5042773;28;20532;-84
2022/04/04 04:58:08;;;;;;;28.37;13.13;;;;;;;;;;5042423;28;20453;-84
2022/04/04 05:00:37;;;;;;;35.33;13.20;;;;;;;;;;5044845;28;20456;-84
2022/04/04 05:05:51;;;;;;;25.53;13.90;;;;;;;;;;5049855;28;20843;-84
2022/04/04 05:08:18;;;;;;;27.83;13.50;;;;;;;;;;5045115;28;20508;-84
2022/04/04 05:10:46;;;;;;;30.30;14.17;;;;;;;;;;5047267;28;20458;-84
2022/04/04 05:13:14;;;;;;;25.97;13.10;;;;;;;;;;5047272;28;20479;-84
2022/04/04 05:15:41;;;;;;;32.80;13.70;;;;;;;;;;5063430;28;20469;-84
2022/04/04 05:18:09;;;;;;;34.23;14.43;;;;;;;;;;5055446;28;20468;-83
2022/04/04 05:20:39;;;;;;;29.30;14.60;;;;;;;;;;5053993;28;20552;-83
2022/04/04 05:32:19;;;;;;;35.37;14.20;;;;;;;;;;4984981;28;20423;-83
2022/04/04 05:34:49;;;;;;;31.90;15.90;;;;;;;;;;4971387;28;20480;-84
2022/04/04 05:37:16;;;;;;;30.87;16.90;;;;;;;;;;5025694;28;20457;-82
2022/04/04 05:39:43;;;;;;;33.57;17.50;;;;;;;;;;5045003;28;20468;-83
2022/04/04 05:42:10;;;;;;;33.63;15.33;;;;;;;;;;5046617;28;20471;-83
2022/04/04 05:44:40;;;;;;;31.90;15.43;;;;;;;;;;5046655;28;20475;-83
2022/04/04 05:47:09;;;;;;;32.03;16.37;;;;;;;;;;5054926;28;20467;-83
2022/04/04 05:49:38;;;;;;;34.53;16.83;;;;;;;;;;5054715;28;20457;-83
2022/04/04 05:52:06;;;;;;;34.17;16.93;;;;;;;;;;5049849;28;21073;-83
2022/04/04 05:54:34;;;;;;;36.47;17.30;;;;;;;;;;5056750;28;20947;-83
2022/04/04 05:57:01;;;;;;;38.77;18.43;;;;;;;;;;5055379;28;20823;-84
2022/04/04 05:59:28;;;;;;;38.97;18.63;;;;;;;;;;5054491;28;20454;-84
2022/04/04 06:01:56;;;;;;;34.43;17.50;;;;;;;;;;5055980;28;20210;-84
2022/04/04 06:04:26;;;;;;;38.83;18.47;;;;;;;;;;5056168;28;20270;-84
2022/04/04 06:06:55;;;;;;;31.33;16.67;;;;;;;;;;5056409;28;20675;-84
2022/04/04 06:09:22;;;;;;;31.03;16.50;;;;;;;;;;5055517;28;20211;-83
2022/04/04 06:11:52;;;;;;;32.37;16.00;;;;;;;;;;5055604;28;20207;-83
2022/04/04 06:14:23;;;;;;;27.87;15.60;;;;;;;;;;5057393;28;20231;-83
2022/04/04 06:16:50;;;;;;;26.17;14.53;;;;;;;;;;5054804;28;20527;-84
2022/04/04 06:19:17;;;;;;;29.10;14.37;;;;;;;;;;5053310;28;20206;-84
2022/04/04 06:21:45;;;;;;;26.40;14.03;;;;;;;;;;5051212;28;20298;-83
2022/04/04 06:24:14;;;;;;;27.17;12.33;;;;;;;;;;5055093;28;20230;-83
2022/04/04 06:26:41;;;;;;;22.63;10.87;;;;;;;;;;5050392;28;20222;-84
2022/04/04 06:29:10;;;;;;;22.13;11.17;;;;;;;;;;5052773;28;20199;-84
2022/04/04 06:31:37;;;;;;;16.57;8.57;;;;;;;;;;5053208;28;20643;-83
2022/04/04 06:34:05;;;;;;;12.77;7.40;;;;;;;;;;5057070;28;20651;-83
2022/04/04 06:36:32;;;;;;;13.40;8.00;;;;;;;;;;5052862;28;20474;-83
2022/04/04 06:38:59;;;;;;;12.37;6.93;;;;;;;;;;5055708;28;20265;-83
2022/04/04 06:41:30;;;;;;;12.03;6.93;;;;;;;;;;5050988;28;20198;-83
2022/04/04 06:43:58;;;;;;;11.20;6.20;;;;;;;;;;5048343;28;20226;-83
2022/04/04 06:46:25;;;;;;;14.77;6.90;;;;;;;;;;5053042;28;20935;-84
2022/04/04 06:48:53;;;;;;;11.73;6.93;;;;;;;;;;5053864;28;20726;-83
2022/04/04 06:51:20;;;;;;;11.30;7.23;;;;;;;;;;5048308;28;20195;-83
2022/04/04 06:53:47;;;;;;;14.40;5.97;;;;;;;;;;5054052;28;20669;-83
2022/04/04 06:56:15;;;;;;;12.17;6.10;;;;;;;;;;5055626;28;20222;-83
2022/04/04 06:58:46;;;;;;;11.97;6.60;;;;;;;;;;5054030;28;20694;-83
2022/04/04 07:01:14;;;;;;;11.33;5.63;;;;;;;;;;5051108;28;20199;-83
2022/04/04 07:03:41;;;;;;;8.17;5.50;;;;;;;;;;5053379;28;20749;-83
2022/04/04 07:06:08;;;;;;;12.00;6.50;;;;;;;;;;5056068;28;20231;-83
2022/04/04 07:08:38;;;;;;;11.27;6.20;;;;;;;;;;5058701;28;20206;-83
2022/04/04 07:11:10;;;;;;;11.73;6.53;;;;;;;;;;5055394;28;20214;-83
2022/04/04 07:13:37;;;;;;;13.00;7.03;;;;;;;;;;5052491;28;20634;-83
2022/04/04 07:16:06;;;;;;;13.67;8.10;;;;;;;;;;5053466;28;20272;-84
2022/04/04 07:18:34;;;;;;;12.93;6.73;;;;;;;;;;5052860;28;20194;-83
2022/04/04 07:21:01;;;;;;;13.33;6.67;;;;;;;;;;5054864;28;20226;-83
2022/04/04 07:23:28;;;;;;;12.77;6.47;;;;;;;;;;5051968;28;20237;-83
2022/04/04 07:25:56;;;;;;;10.97;6.40;;;;;;;;;;5052307;28;20686;-83
2022/04/04 07:28:23;;;;;;;13.60;6.20;;;;;;;;;;5055518;28;20222;-84
2022/04/04 07:30:52;;;;;;;9.23;6.00;;;;;;;;;;5053606;28;20214;-83
2022/04/04 07:33:21;;;;;;;10.20;5.90;;;;;;;;;;5058286;28;20222;-83
2022/04/04 07:35:49;;;;;;;12.90;6.07;;;;;;;;;;5056548;28;20255;-83
2022/04/04 07:38:16;;;;;;;8.67;5.50;;;;;;;;;;5055869;28;20213;-84
2022/04/04 07:40:45;;;;;;;10.20;6.07;;;;;;;;;;5053195;28;20222;-83
2022/04/04 07:43:15;;;;;;;9.13;5.90;;;;;;;;;;5051317;28;20202;-84
2022/04/04 07:45:43;;;;;;;9.33;5.63;;;;;;;;;;5054591;28;20253;-84
2022/04/04 07:48:11;;;;;;;8.20;5.03;;;;;;;;;;5050753;28;20280;-83
2022/04/04 07:50:41;;;;;;;7.80;5.07;;;;;;;;;;5056034;28;20207;-85
2022/04/04 07:53:09;;;;;;;14.03;5.17;;;;;;;;;;5053036;28;20218;-84
2022/04/04 07:55:36;;;;;;;10.10;5.70;;;;;;;;;;5051688;28;20229;-84
2022/04/04 07:58:04;;;;;;;10.80;5.37;;;;;;;;;;5058341;28;20268;-85
2022/04/04 08:00:31;;;;;;;12.47;5.40;;;;;;;;;;5054119;28;20210;-84
2022/04/04 08:02:59;;;;;;;8.03;5.27;;;;;;;;;;5054498;28;20663;-85
2022/04/04 08:05:26;;;;;;;9.30;6.07;;;;;;;;;;5051405;28;20226;-85
2022/04/04 08:07:55;;;;;;;9.50;5.20;;;;;;;;;;5057579;28;20207;-84
2022/04/04 08:10:22;;;;;;;8.60;4.80;;;;;;;;;;5050683;28;20202;-85
2022/04/04 08:12:52;;;;;;;8.63;4.90;;;;;;;;;;5061189;28;20222;-84
2022/04/04 08:15:19;;;;;;;8.43;4.83;;;;;;;;;;5053295;28;20283;-85
2022/04/04 08:17:46;;;;;;;9.63;5.17;;;;;;;;;;5051385;28;20207;-84
2022/04/04 08:20:16;;;;;;;6.80;4.73;;;;;;;;;;5056224;28;20217;-84
2022/04/04 08:22:44;;;;;;;8.00;4.57;;;;;;;;;;5056990;28;20206;-84
2022/04/04 08:25:14;;;;;;;8.63;4.93;;;;;;;;;;5057954;28;20222;-84
2022/04/04 08:27:43;;;;;;;7.73;4.80;;;;;;;;;;5056091;28;20601;-84
2022/04/04 08:30:12;;;;;;;8.77;4.47;;;;;;;;;;5056062;28;20672;-84
2022/04/04 08:32:41;;;;;;;8.20;5.00;;;;;;;;;;5060242;28;20238;-84
2022/04/04 08:35:09;;;;;;;7.37;4.37;;;;;;;;;;5051655;28;20292;-84
2022/04/04 08:37:39;;;;;;;7.93;4.07;;;;;;;;;;5056825;28;20226;-83
2022/04/04 08:40:08;;;;;;;9.57;4.67;;;;;;;;;;5060768;28;20226;-84
2022/04/04 08:42:38;;;;;;;10.37;4.60;;;;;;;;;;5064041;28;20195;-84
2022/04/04 08:45:06;;;;;;;7.43;4.83;;;;;;;;;;5061279;28;20231;-84
2022/04/04 08:47:35;;;;;;;8.97;5.87;;;;;;;;;;5069552;28;20221;-84
2022/04/04 08:50:04;;;;;;;9.23;4.60;;;;;;;;;;5060895;28;20213;-84
2022/04/04 08:52:32;;;;;;;6.87;4.50;;;;;;;;;;5063053;28;20648;-84
2022/04/04 08:54:59;;;;;;;8.17;4.40;;;;;;;;;;5057967;28;20228;-83
2022/04/04 08:57:27;;;;;;;5.97;4.03;;;;;;;;;;5054722;28;20231;-84
2022/04/04 08:59:56;;;;;;;6.67;4.63;;;;;;;;;;5059234;28;20219;-84
2022/04/04 09:02:24;;;;;;;8.57;5.77;;;;;;;;;;5060516;28;20277;-82
2022/04/04 09:04:54;;;;;;;11.17;7.03;;;;;;;;;;5064175;28;20230;-83
2022/04/04 09:07:22;;;;;;;13.00;7.13;;;;;;;;;;5069385;28;20206;-83
2022/04/04 09:09:50;;;;;;;11.00;6.20;;;;;;;;;;5066043;28;20211;-83
2022/04/04 09:12:19;;;;;;;31.10;17.57;;;;;;;;;;5061586;28;20203;-84
2022/04/04 09:14:49;;;;;;;10.43;7.23;;;;;;;;;;5060003;28;20259;-83
2022/04/04 09:17:21;;;;;;;11.93;7.57;;;;;;;;;;5052102;28;20647;-83
2022/04/04 09:19:51;;;;;;;17.00;8.43;;;;;;;;;;5051620;28;20257;-84
2022/04/04 09:22:19;;;;;;;11.40;6.07;;;;;;;;;;5053745;28;20269;-84
2022/04/04 09:24:48;;;;;;;18.67;11.03;;;;;;;;;;5050214;28;20306;-84
2022/04/04 09:27:24;;;;;;;16.97;9.60;;;;;;;;;;5048687;28;20217;-84
2022/04/04 09:29:52;;;;;;;10.87;6.80;;;;;;;;;;5056328;28;20203;-83
2022/04/04 09:32:24;;;;;;;8.07;5.57;;;;;;;;;;5054491;28;20719;-83
2022/04/04 09:35:01;;;;;;;8.87;5.23;;;;;;;;;;5049497;28;20271;-83
2022/04/04 09:37:32;;;;;;;14.43;5.73;;;;;;;;;;5046402;28;20222;-84
2022/04/04 09:40:07;;;;;;;12.00;5.50;;;;;;;;;;5046955;28;20203;-84
2022/04/04 09:42:35;;;;;;;7.00;4.53;;;;;;;;;;5046508;28;20210;-85
2022/04/04 09:45:03;;;;;;;12.00;5.57;;;;;;;;;;5053584;28;20231;-84
2022/04/04 09:47:48;;;;;;;8.23;5.37;;;;;;;;;;5049006;28;20207;-85
2022/04/04 09:50:34;;;;;;;9.53;5.30;;;;;;;;;;5053003;28;20626;-84
2022/04/04 09:53:02;;;;;;;8.47;5.10;;;;;;;;;;5053117;28;20213;-84
2022/04/04 09:55:30;;;;;;;7.83;5.50;;;;;;;;;;5053573;28;20222;-84
2022/04/04 09:57:59;;;;;;;10.63;5.73;;;;;;;;;;5051032;28;20211;-84
2022/04/04 10:00:29;;;;;;;9.37;5.23;;;;;;;;;;5052713;28;20203;-84
2022/04/04 10:02:58;;;;;;;9.57;5.70;;;;;;;;;;5050173;28;20207;-84
2022/04/04 10:05:26;;;;;;;8.23;5.47;;;;;;;;;;5046163;28;20321;-85
2022/04/04 10:07:56;;;;;;;10.33;5.73;;;;;;;;;;5051847;28;20207;-84
2022/04/04 10:10:24;;;;;;;9.47;5.40;;;;;;;;;;5056365;28;20199;-84
2022/04/04 10:12:52;;;;;;;11.47;6.20;;;;;;;;;;5050274;28;20710;-84
2022/04/04 10:15:23;;;;;;;11.53;7.30;;;;;;;;;;5049676;28;20268;-84
2022/04/04 10:17:50;;;;;;;10.50;6.57;;;;;;;;;;5046271;28;20741;-83
2022/04/04 10:20:20;;;;;;;10.50;6.03;;;;;;;;;;5053721;28;20199;-84
2022/04/04 10:22:49;;;;;;;12.00;6.30;;;;;;;;;;5056297;28;20206;-84
2022/04/04 10:25:17;;;;;;;11.47;6.17;;;;;;;;;;5058545;28;20632;-83
2022/04/04 10:27:47;;;;;;;15.87;7.30;;;;;;;;;;5047368;28;20235;-84
2022/04/04 10:30:16;;;;;;;12.77;6.37;;;;;;;;;;5047072;28;20788;-84
2022/04/04 10:32:49;;;;;;;12.27;5.90;;;;;;;;;;5037585;28;20260;-83
2022/04/04 10:35:20;;;;;;;16.90;7.83;;;;;;;;;;5112276;22;20222;-82
2022/04/04 10:37:48;;;;;;;15.93;7.40;;;;;;;;;;5062155;28;20210;-82
2022/04/04 10:40:19;;;;;;;9.53;5.37;;;;;;;;;;5063768;28;20229;-82
2022/04/04 10:42:48;;;;;;;16.20;9.80;;;;;;;;;;5059493;28;20565;-83
2022/04/04 10:45:18;;;;;;;14.30;8.80;;;;;;;;;;5063108;28;20230;-82
2022/04/04 10:47:46;;;;;;;14.37;9.23;;;;;;;;;;5053157;28;20256;-83
2022/04/04 10:50:24;;;;;;;18.20;11.57;;;;;;;;;;5055326;28;20239;-82
2022/04/04 10:52:53;;;;;;;14.30;5.70;;;;;;;;;;5052492;28;20210;-82
2022/04/04 10:55:31;;;;;;;14.03;7.33;;;;;;;;;;5050494;28;20228;-83
2022/04/04 10:57:59;;;;;;;13.97;5.73;;;;;;;;;;5055456;28;20238;-81
2022/04/04 11:00:32;;;;;;;37.03;20.97;;;;;;;;;;5055147;28;20203;-81
2022/04/04 11:03:01;;;;;;;17.87;11.57;;;;;;;;;;5058885;28;20229;-82
2022/04/04 11:08:15;;;;;;;12.17;8.77;;;;;;;;;;5054786;28;20267;-84
2022/04/04 11:10:47;;;;;;;16.10;11.47;;;;;;;;;;5057502;28;20207;-81
2022/04/04 11:13:17;;;;;;;18.13;11.87;;;;;;;;;;5054623;28;20348;-84
2022/04/04 11:15:44;;;;;;;23.10;16.13;;;;;;;;;;5053984;28;20738;-83
2022/04/04 11:18:12;;;;;;;13.90;8.00;;;;;;;;;;5056700;28;20195;-84
2022/04/04 11:20:48;;;;;;;11.93;6.50;;;;;;;;;;5056896;28;20925;-85
2022/04/04 11:23:17;;;;;;;12.67;6.60;;;;;;;;;;5057691;28;20210;-83
2022/04/04 11:25:49;;;;;;;10.80;7.63;;;;;;;;;;5060343;28;20226;-84
2022/04/04 11:28:17;;;;;;;8.13;5.90;;;;;;;;;;5057560;28;20210;-83
2022/04/04 11:30:44;;;;;;;9.30;4.63;;;;;;;;;;5063636;28;20210;-83
2022/04/04 11:33:22;;;;;;;14.20;7.80;;;;;;;;;;5065743;28;20226;-83
2022/04/04 11:35:50;;;;;;;13.10;5.60;;;;;;;;;;5057092;28;20233;-83
2022/04/04 11:38:20;;;;;;;15.33;9.33;;;;;;;;;;5055052;28;20220;-84
2022/04/04 11:40:53;;;;;;;10.53;6.47;;;;;;;;;;5056768;28;20212;-84
2022/04/04 11:43:21;;;;;;;17.13;8.03;;;;;;;;;;5058890;28;20241;-83
2022/04/04 11:45:49;;;;;;;13.70;7.43;;;;;;;;;;5055152;28;20633;-85
2022/04/04 11:48:23;;;;;;;11.57;7.20;;;;;;;;;;5066392;28;20230;-83
2022/04/04 11:50:56;;;;;;;9.60;5.70;;;;;;;;;;5059366;28;20210;-84
2022/04/04 11:53:26;;;;;;;15.13;5.53;;;;;;;;;;5006636;28;20252;-84
2022/04/04 11:56:00;;;;;;;9.43;5.50;;;;;;;;;;5018490;28;20331;-85
2022/04/04 11:58:27;;;;;;;10.73;5.23;;;;;;;;;;5012211;28;20218;-85
2022/04/04 12:00:57;;;;;;;8.13;4.87;;;;;;;;;;5014867;28;20479;-83
2022/04/04 12:03:26;;;;;;;8.53;5.00;;;;;;;;;;5020994;28;20203;-84
2022/04/04 12:05:55;;;;;;;7.87;4.93;;;;;;;;;;5020303;28;20699;-85
2022/04/04 12:08:23;;;;;;;8.47;4.80;;;;;;;;;;5001673;28;20633;-84
2022/04/04 12:10:51;;;;;;;10.20;5.20;;;;;;;;;;5011309;28;20212;-84
2022/04/04 12:13:21;;;;;;;7.67;4.70;;;;;;;;;;5011934;28;20222;-82
2022/04/04 12:15:49;;;;;;;9.37;5.17;;;;;;;;;;5016649;28;20246;-84
2022/04/04 12:18:20;;;;;;;10.63;4.83;;;;;;;;;;5013370;28;20209;-85
2022/04/04 12:20:48;;;;;;;8.73;5.00;;;;;;;;;;5020211;28;20220;-79
2022/04/04 12:26:03;;;;;;;6.87;4.27;;;;;;;;;;5027836;28;20325;-82
2022/04/04 12:28:32;;;;;;;9.10;4.40;;;;;;;;;;5020771;28;20199;-80
2022/04/04 12:31:10;;;;;;;9.63;5.37;;;;;;;;;;5031937;28;20212;-81
2022/04/04 12:33:37;;;;;;;9.57;4.80;;;;;;;;;;5027739;28;20208;-82
2022/04/04 12:36:04;;;;;;;10.10;4.50;;;;;;;;;;5028349;28;20220;-82
2022/04/04 12:38:32;;;;;;;8.50;4.87;;;;;;;;;;5030092;28;20212;-80
2022/04/04 12:41:11;;;;;;;10.97;5.10;;;;;;;;;;5028533;28;20256;-81
2022/04/04 12:43:39;;;;;;;8.33;4.23;;;;;;;;;;5026280;28;20211;-82
2022/04/04 12:46:08;;;;;;;9.57;4.90;;;;;;;;;;5024592;28;20219;-82
2022/04/04 12:48:35;;;;;;;8.60;4.77;;;;;;;;;;5028346;28;20192;-83
2022/04/04 12:51:03;;;;;;;8.07;4.87;;;;;;;;;;5024910;28;20212;-85
2022/04/04 12:53:30;;;;;;;6.80;4.53;;;;;;;;;;5019393;28;20208;-83
2022/04/04 12:56:05;;;;;;;8.60;4.80;;;;;;;;;;5019883;28;20228;-83
2022/04/04 12:58:38;;;;;;;11.23;5.70;;;;;;;;;;5021166;28;20212;-84
2022/04/04 13:01:15;;;;;;;8.13;5.57;;;;;;;;;;5024650;28;20232;-83
2022/04/04 13:03:49;;;;;;;8.27;4.80;;;;;;;;;;5021661;28;20240;-83
2022/04/04 13:06:16;;;;;;;10.40;6.20;;;;;;;;;;5019014;28;20223;-83
2022/04/04 13:08:54;;;;;;;9.63;5.80;;;;;;;;;;5019147;28;20231;-85
2022/04/04 13:11:21;;;;;;;8.27;5.30;;;;;;;;;;5023599;28;20522;-85
2022/04/04 13:14:05;;;;;;;10.20;4.77;;;;;;;;;;5018840;28;20219;-84
2022/04/04 13:16:33;;;;;;;13.93;6.60;;;;;;;;;;5020850;28;20256;-84
2022/04/04 13:19:00;;;;;;;13.60;6.10;;;;;;;;;;5020752;28;20200;-83
2022/04/04 13:21:27;;;;;;;8.90;5.20;;;;;;;;;;5010740;28;20196;-84
2022/04/04 13:23:55;;;;;;;13.13;7.10;;;;;;;;;;5015895;28;20232;-83
2022/04/04 13:26:22;;;;;;;10.00;5.80;;;;;;;;;;5015964;28;20588;-85
2022/04/04 13:28:49;;;;;;;10.53;6.23;;;;;;;;;;5014926;28;20273;-85
2022/04/04 13:31:19;;;;;;;12.03;6.00;;;;;;;;;;5017428;28;20272;-82
2022/04/04 13:34:00;;;;;;;10.33;6.00;;;;;;;;;;5015842;28;20216;-84
2022/04/04 13:36:56;;;;;;;11.30;5.60;;;;;;;;;;5014442;28;20211;-82
2022/04/04 13:39:35;;;;;;;10.87;5.73;;;;;;;;;;5016034;28;20299;-82
2022/04/04 13:42:21;;;;;;;8.67;5.27;;;;;;;;;;5016820;28;20213;-82
2022/04/04 13:44:58;;;;;;;9.47;4.80;;;;;;;;;;5015508;28;20223;-82
2022/04/04 13:50:39;;;;;;;11.33;4.83;;;;;;;;;;4930302;28;20316;-83
2022/04/04 13:53:13;;;;;;;8.70;5.67;;;;;;;;;;4965600;28;20333;-82
2022/04/04 13:58:43;;;;;;;9.50;5.80;;;;;;;;;;4991166;28;20230;-81
2022/04/04 14:01:13;;;;;;;7.90;5.37;;;;;;;;;;5013113;28;20235;-81
2022/04/04 14:04:07;;;;;;;9.10;5.50;;;;;;;;;;5014351;28;20212;-81
2022/04/04 14:09:32;;;;;;;6.87;4.83;;;;;;;;;;5012606;28;20205;-84
2022/04/04 14:12:03;;;;;;;8.57;5.33;;;;;;;;;;5015443;28;20228;-82
2022/04/04 14:14:33;;;;;;;9.30;5.80;;;;;;;;;;5016947;28;20320;-81
2022/04/04 14:17:03;;;;;;;18.03;9.60;;;;;;;;;;5012164;28;20229;-79
2022/04/04 14:19:31;;;;;;;30.53;16.73;;;;;;;;;;5015316;28;20285;-82
2022/04/04 14:22:05;;;;;;;39.20;20.70;;;;;;;;;;5019353;28;20227;-85
2022/04/04 14:24:41;;;;;;;16.07;8.90;;;;;;;;;;5019276;28;20302;-83
2022/04/04 14:30:11;;;;;;;11.77;7.50;;;;;;;;;;5021626;28;20212;-83
2022/04/04 14:33:07;;;;;;;7.57;4.87;;;;;;;;;;5019650;28;20206;-82
2022/04/04 14:35:42;;;;;;;6.77;4.23;;;;;;;;;;5019227;28;20224;-85
2022/04/04 14:38:32;;;;;;;9.07;5.83;;;;;;;;;;5021979;28;20802;-82
2022/04/04 14:41:11;;;;;;;8.27;5.53;;;;;;;;;;5019837;28;20205;-81
2022/04/04 14:44:04;;;;;;;29.40;11.97;;;;;;;;;;5020092;28;20235;-82
2022/04/04 14:46:37;;;;;;;12.87;6.20;;;;;;;;;;5021174;28;20251;-81
2022/04/04 14:49:14;;;;;;;10.30;6.43;;;;;;;;;;5017382;28;20209;-80
2022/04/04 14:51:42;;;;;;;10.60;5.50;;;;;;;;;;5020319;28;20270;-79
2022/04/04 14:54:12;;;;;;;7.93;5.00;;;;;;;;;;5018284;28;20220;-81
2022/04/04 14:56:56;;;;;;;9.93;6.10;;;;;;;;;;5017904;28;20274;-80
2022/04/04 14:59:27;;;;;;;16.77;9.60;;;;;;;;;;5017900;28;20213;-81
2022/04/04 15:01:54;;;;;;;8.47;5.43;;;;;;;;;;5020004;28;20588;-80
2022/04/04 15:04:30;;;;;;;12.13;6.60;;;;;;;;;;5021077;28;20234;-81
2022/04/04 15:07:00;;;;;;;9.27;6.17;;;;;;;;;;5019164;28;20238;-81
2022/04/04 15:09:31;;;;;;;9.33;6.30;;;;;;;;;;5024150;28;20641;-82
2022/04/04 15:11:58;;;;;;;11.33;7.00;;;;;;;;;;5017094;28;20205;-80
2022/04/04 15:14:31;;;;;;;12.43;6.57;;;;;;;;;;5022802;28;20244;-80
2022/04/04 15:17:04;;;;;;;13.17;6.57;;;;;;;;;;5012450;28;20212;-86